createdAt,value
2024-02-13T13:22:24.268Z,20.76
2024-02-13T13:24:51.410Z,21.00
2024-02-13T13:27:19.699Z,21.88
2024-02-13T13:29:46.839Z,21.27
2024-02-13T13:32:13.897Z,20.54
2024-02-13T13:34:41.973Z,22.89
2024-02-13T13:37:09.228Z,19.55
2024-02-13T13:39:38.889Z,17.39
2024-02-13T13:42:06.745Z,20.74
2024-02-13T13:44:33.937Z,21.35
2024-02-13T13:47:01.049Z,32.59
2024-02-13T13:49:28.083Z,37.08
2024-02-13T13:51:57.560Z,39.15
2024-02-13T13:54:26.745Z,40.30
2024-02-13T13:56:56.501Z,41.73
2024-02-13T13:59:23.524Z,41.85
2024-02-13T14:01:50.796Z,42.31
2024-02-13T14:04:17.778Z,43.53
2024-02-13T14:06:44.740Z,43.51
2024-02-13T14:09:11.808Z,44.22
2024-02-13T14:11:41.308Z,44.77
2024-02-13T14:14:13.029Z,45.70
2024-02-13T14:16:40.012Z,45.28
2024-02-13T18:35:51.646Z,62.95
2024-02-13T18:38:18.754Z,63.10
2024-02-13T18:40:45.802Z,63.51
2024-02-13T18:43:14.995Z,63.38
2024-02-13T18:45:49.292Z,63.76
2024-02-13T18:48:16.388Z,64.13
2024-02-13T18:50:44.960Z,64.31
2024-02-13T18:53:22.039Z,64.35
2024-02-13T18:55:49.216Z,64.68
2024-02-13T18:58:16.165Z,64.98
2024-02-13T19:00:46.067Z,64.89
2024-02-13T19:03:13.374Z,65.06
2024-02-13T19:05:40.626Z,64.74
2024-02-13T19:08:08.020Z,65.05
2024-02-13T19:10:38.376Z,65.13
2024-02-13T19:13:05.798Z,65.19
2024-02-13T19:15:34.677Z,65.52
2024-02-13T19:18:01.790Z,65.68
2024-02-13T19:20:28.846Z,65.90
2024-02-13T19:22:55.807Z,66.24
2024-02-13T19:25:22.818Z,66.41
2024-02-13T19:27:52.488Z,66.09
2024-02-13T19:30:19.542Z,66.07
2024-02-13T19:32:47.974Z,66.33
2024-02-13T19:35:16.315Z,67.13
2024-02-13T19:37:43.346Z,67.02
2024-02-13T19:40:11.527Z,67.32
2024-02-13T19:42:38.744Z,67.28
2024-02-13T19:45:09.523Z,66.85
2024-02-13T19:47:36.583Z,66.68
2024-02-13T19:50:04.106Z,66.64
2024-02-13T19:52:31.289Z,66.78
2024-02-13T19:54:58.234Z,66.81
2024-02-13T19:57:25.401Z,66.74
2024-02-13T19:59:52.480Z,67.31
2024-02-13T20:02:22.218Z,67.14
2024-02-13T20:04:49.472Z,67.15
2024-02-13T20:07:16.669Z,67.42
2024-02-13T20:09:44.961Z,67.43
2024-02-13T20:12:19.170Z,67.29
2024-02-13T20:14:46.273Z,67.48
2024-02-13T20:17:13.607Z,67.46
2024-02-13T20:19:43.630Z,67.52
2024-02-13T20:22:10.667Z,67.78
2024-02-13T20:24:38.780Z,67.87
2024-02-13T20:27:05.963Z,67.87
2024-02-13T20:29:33.013Z,67.95
2024-02-13T20:31:59.923Z,68.14
2024-02-13T20:34:26.946Z,68.00
2024-02-13T20:36:56.561Z,68.02
2024-02-13T20:39:25.398Z,68.23
2024-02-13T20:41:52.415Z,68.37
2024-02-13T20:44:19.494Z,68.36
2024-02-13T20:46:46.509Z,68.07
2024-02-13T20:49:13.850Z,68.55
2024-02-13T20:51:43.717Z,68.30
2024-02-13T20:54:14.894Z,68.48
2024-02-13T20:56:41.983Z,68.77
2024-02-13T20:59:08.923Z,68.83
2024-02-13T21:01:35.926Z,69.31
2024-02-13T21:04:03.681Z,69.22
2024-02-13T21:06:30.809Z,69.25
2024-02-13T21:08:57.887Z,69.39
2024-02-13T21:11:27.471Z,69.46
2024-02-13T21:13:55.825Z,69.25
2024-02-13T21:16:26.090Z,69.23
2024-02-13T21:18:53.211Z,69.21
2024-02-13T21:21:20.210Z,69.35
2024-02-13T21:23:47.193Z,69.68
2024-02-13T21:26:14.191Z,69.49
2024-02-13T21:28:43.865Z,69.05
2024-02-13T21:31:11.362Z,69.54
2024-02-13T21:33:38.702Z,69.59
2024-02-13T21:36:06.604Z,69.56
2024-02-13T21:38:33.636Z,69.89
2024-02-13T21:41:00.678Z,69.68
2024-02-13T21:43:30.171Z,69.82
2024-02-13T21:45:59.764Z,70.02
2024-02-13T21:48:26.827Z,70.04
2024-02-13T21:50:54.038Z,70.51
2024-02-13T21:53:21.084Z,70.09
2024-02-13T21:55:48.056Z,69.91
2024-02-13T21:58:15.047Z,70.08
2024-02-13T22:00:42.299Z,70.29
2024-02-13T22:03:12.061Z,70.16
2024-02-13T22:05:39.048Z,70.10
2024-02-13T22:08:06.953Z,70.66
2024-02-13T22:10:33.957Z,70.51
2024-02-13T22:13:01.437Z,70.44
2024-02-13T22:15:28.425Z,70.28
2024-02-13T22:17:55.390Z,70.46
2024-02-13T22:20:25.161Z,70.24
2024-02-13T22:22:52.142Z,70.66
2024-02-13T22:25:19.252Z,70.72
2024-02-13T22:27:46.142Z,70.89
2024-02-13T22:30:14.116Z,70.69
2024-02-13T22:32:41.332Z,70.79
2024-02-13T22:35:08.947Z,70.73
2024-02-13T22:37:38.767Z,70.96
2024-02-13T22:40:07.406Z,70.88
2024-02-13T22:42:34.334Z,70.90
2024-02-13T22:45:01.344Z,70.96
2024-02-13T22:47:28.685Z,70.62
2024-02-13T22:49:55.789Z,71.31
2024-02-13T22:52:22.754Z,71.29
2024-02-13T22:54:53.776Z,71.10
2024-02-13T22:57:20.682Z,70.52
2024-02-13T22:59:47.761Z,70.46
2024-02-13T23:02:14.761Z,69.79
2024-02-13T23:04:42.696Z,69.47
2024-02-13T23:07:09.639Z,70.10
2024-02-13T23:09:36.538Z,69.72
2024-02-13T23:12:07.424Z,69.49
2024-02-13T23:14:38.006Z,69.12
2024-02-13T23:17:05.612Z,68.99
2024-02-13T23:19:32.676Z,68.87
2024-02-13T23:21:59.685Z,69.06
2024-02-13T23:24:26.589Z,69.46
2024-02-13T23:26:53.801Z,69.85
2024-02-13T23:29:23.613Z,70.25
2024-02-13T23:31:50.775Z,70.20
2024-02-13T23:34:17.857Z,70.09
2024-02-13T23:36:44.948Z,69.59
2024-02-13T23:39:11.933Z,69.64
2024-02-13T23:41:40.096Z,69.73
2024-02-13T23:44:08.833Z,69.51
2024-02-13T23:46:38.311Z,69.54
2024-02-13T23:49:05.400Z,69.12
2024-02-13T23:51:32.856Z,69.59
2024-02-13T23:53:59.846Z,69.56
2024-02-13T23:56:27.016Z,69.84
2024-02-13T23:58:53.951Z,70.47
